sensor_id;sensor_type;location;lat;lon;timestamp;pressure;altitude;pressure_sealevel;temperature;humidity
12991;BME280;6560;57.692;11.958;2023-05-25T00:02:03;101532.56;;;25.12;100.00
12991;BME280;6560;57.692;11.958;2023-05-25T00:04:29;101441.94;;;24.59;100.00
12991;BME280;6560;57.692;11.958;2023-05-25T00:06:59;101535.00;;;25.03;100.00
12991;BME280;6560;57.692;11.958;2023-05-25T00:09:25;101425.72;;;24.28;100.00
12991;BME280;6560;57.692;11.958;2023-05-25T00:11:50;101550.13;;;24.70;100.00
12991;BME280;6560;57.692;11.958;2023-05-25T00:14:17;101510.28;;;24.31;100.00
12991;BME280;6560;57.692;11.958;2023-05-25T00:16:42;101556.38;;;24.13;100.00
12991;BME280;6560;57.692;11.958;2023-05-25T00:19:09;101539.69;;;24.80;100.00
12991;BME280;6560;57.692;11.958;2023-05-25T00:21:35;101546.28;;;24.33;100.00
12991;BME280;6560;57.692;11.958;2023-05-25T00:24:05;101546.66;;;24.18;100.00
12991;BME280;6560;57.692;11.958;2023-05-25T00:26:31;101541.38;;;23.95;100.00
12991;BME280;6560;57.692;11.958;2023-05-25T00:28:56;101488.09;;;23.59;100.00
12991;BME280;6560;57.692;11.958;2023-05-25T00:31:24;101567.09;;;23.85;100.00
12991;BME280;6560;57.692;11.958;2023-05-25T00:33:50;101547.75;;;23.71;100.00
12991;BME280;6560;57.692;11.958;2023-05-25T00:36:16;101556.59;;;23.67;100.00
12991;BME280;6560;57.692;11.958;2023-05-25T00:38:41;101565.38;;;23.62;100.00
12991;BME280;6560;57.692;11.958;2023-05-25T00:41:07;101548.09;;;23.55;100.00
12991;BME280;6560;57.692;11.958;2023-05-25T00:43:32;101540.00;;;23.55;100.00
12991;BME280;6560;57.692;11.958;2023-05-25T00:45:58;101544.75;;;23.62;100.00
12991;BME280;6560;57.692;11.958;2023-05-25T00:48:26;101561.13;;;23.68;100.00
12991;BME280;6560;57.692;11.958;2023-05-25T00:50:54;101523.88;;;23.57;100.00
12991;BME280;6560;57.692;11.958;2023-05-25T00:53:24;101552.13;;;23.68;100.00
12991;BME280;6560;57.692;11.958;2023-05-25T00:58:23;101567.78;;;23.54;100.00
12991;BME280;6560;57.692;11.958;2023-05-25T01:00:53;101575.00;;;23.55;100.00
12991;BME280;6560;57.692;11.958;2023-05-25T01:03:20;101577.84;;;23.60;100.00
12991;BME280;6560;57.692;11.958;2023-05-25T01:05:53;101581.19;;;23.53;100.00
12991;BME280;6560;57.692;11.958;2023-05-25T01:08:19;101582.81;;;23.48;100.00
12991;BME280;6560;57.692;11.958;2023-05-25T01:10:48;101495.31;;;22.87;100.00
12991;BME280;6560;57.692;11.958;2023-05-25T01:13:16;101588.50;;;23.33;100.00
12991;BME280;6560;57.692;11.958;2023-05-25T01:15:41;101588.63;;;23.36;100.00
12991;BME280;6560;57.692;11.958;2023-05-25T01:18:07;101591.91;;;23.51;100.00
12991;BME280;6560;57.692;11.958;2023-05-25T01:20:33;101585.81;;;23.57;100.00
12991;BME280;6560;57.692;11.958;2023-05-25T01:23:07;101592.75;;;23.50;100.00
12991;BME280;6560;57.692;11.958;2023-05-25T01:25:39;101598.84;;;23.46;100.00
12991;BME280;6560;57.692;11.958;2023-05-25T01:28:27;101599.25;;;23.55;100.00
12991;BME280;6560;57.692;11.958;2023-05-25T01:30:55;101483.56;;;22.84;100.00
12991;BME280;6560;57.692;11.958;2023-05-25T01:33:21;101610.59;;;23.72;100.00
12991;BME280;6560;57.692;11.958;2023-05-25T01:35:48;101605.50;;;23.79;100.00
12991;BME280;6560;57.692;11.958;2023-05-25T01:38:16;101610.19;;;23.85;100.00
12991;BME280;6560;57.692;11.958;2023-05-25T01:40:42;101581.41;;;23.84;100.00
12991;BME280;6560;57.692;11.958;2023-05-25T01:43:08;101604.50;;;24.03;100.00
12991;BME280;6560;57.692;11.958;2023-05-25T01:45:34;101608.41;;;23.60;100.00
12991;BME280;6560;57.692;11.958;2023-05-25T01:48:24;101611.59;;;23.50;100.00
12991;BME280;6560;57.692;11.958;2023-05-25T01:53:35;101604.16;;;23.43;100.00
12991;BME280;6560;57.692;11.958;2023-05-25T01:56:02;101614.09;;;23.45;100.00
12991;BME280;6560;57.692;11.958;2023-05-25T01:58:41;101559.22;;;23.17;100.00
12991;BME280;6560;57.692;11.958;2023-05-25T02:01:08;101630.47;;;23.28;100.00
12991;BME280;6560;57.692;11.958;2023-05-25T02:03:36;101626.25;;;23.58;100.00
12991;BME280;6560;57.692;11.958;2023-05-25T02:06:02;101625.19;;;23.31;100.00
12991;BME280;6560;57.692;11.958;2023-05-25T02:08:28;101618.91;;;23.30;100.00
12991;BME280;6560;57.692;11.958;2023-05-25T02:10:54;101611.94;;;23.35;100.00
12991;BME280;6560;57.692;11.958;2023-05-25T02:13:19;101471.47;;;22.50;100.00
12991;BME280;6560;57.692;11.958;2023-05-25T02:15:45;101503.94;;;22.79;100.00
12991;BME280;6560;57.692;11.958;2023-05-25T02:18:10;101620.63;;;23.28;100.00
12991;BME280;6560;57.692;11.958;2023-05-25T02:20:38;101548.19;;;23.11;100.00
12991;BME280;6560;57.692;11.958;2023-05-25T02:23:03;101603.28;;;23.20;100.00
12991;BME280;6560;57.692;11.958;2023-05-25T02:25:29;101621.09;;;23.17;100.00
12991;BME280;6560;57.692;11.958;2023-05-25T02:27:54;101617.75;;;23.24;100.00
12991;BME280;6560;57.692;11.958;2023-05-25T02:30:20;101622.78;;;23.61;100.00
12991;BME280;6560;57.692;11.958;2023-05-25T02:32:45;101619.78;;;22.83;100.00
12991;BME280;6560;57.692;11.958;2023-05-25T02:35:11;101628.44;;;22.98;100.00
12991;BME280;6560;57.692;11.958;2023-05-25T02:37:37;101582.25;;;22.65;100.00
12991;BME280;6560;57.692;11.958;2023-05-25T02:40:04;101631.81;;;22.50;100.00
12991;BME280;6560;57.692;11.958;2023-05-25T02:42:30;101633.56;;;22.70;100.00
12991;BME280;6560;57.692;11.958;2023-05-25T02:44:55;101646.47;;;22.58;100.00
12991;BME280;6560;57.692;11.958;2023-05-25T02:47:21;101565.63;;;22.09;100.00
12991;BME280;6560;57.692;11.958;2023-05-25T02:49:46;101578.31;;;22.13;100.00
12991;BME280;6560;57.692;11.958;2023-05-25T02:52:12;101647.78;;;22.67;100.00
12991;BME280;6560;57.692;11.958;2023-05-25T02:54:38;101652.38;;;22.70;100.00
12991;BME280;6560;57.692;11.958;2023-05-25T02:57:04;101634.53;;;22.50;100.00
12991;BME280;6560;57.692;11.958;2023-05-25T02:59:30;101663.66;;;22.18;100.00
12991;BME280;6560;57.692;11.958;2023-05-25T03:01:57;101674.00;;;22.51;100.00
12991;BME280;6560;57.692;11.958;2023-05-25T03:04:23;101674.50;;;22.63;100.00
12991;BME280;6560;57.692;11.958;2023-05-25T03:06:49;101706.31;;;22.73;100.00
12991;BME280;6560;57.692;11.958;2023-05-25T03:09:14;101689.00;;;23.11;100.00
12991;BME280;6560;57.692;11.958;2023-05-25T03:11:40;101680.63;;;23.48;100.00
12991;BME280;6560;57.692;11.958;2023-05-25T03:14:05;101530.22;;;22.86;100.00
12991;BME280;6560;57.692;11.958;2023-05-25T03:16:31;101697.13;;;23.57;100.00
12991;BME280;6560;57.692;11.958;2023-05-25T03:19:03;101702.13;;;23.94;100.00
12991;BME280;6560;57.692;11.958;2023-05-25T03:21:30;101697.44;;;23.90;100.00
12991;BME280;6560;57.692;11.958;2023-05-25T03:23:55;101696.19;;;23.57;100.00
12991;BME280;6560;57.692;11.958;2023-05-25T03:26:21;101698.63;;;24.22;100.00
12991;BME280;6560;57.692;11.958;2023-05-25T03:28:55;101712.47;;;24.58;100.00
12991;BME280;6560;57.692;11.958;2023-05-25T03:31:21;101727.66;;;24.05;100.00
12991;BME280;6560;57.692;11.958;2023-05-25T03:33:47;101714.63;;;24.41;100.00
12991;BME280;6560;57.692;11.958;2023-05-25T03:36:12;101738.44;;;24.54;97.57
12991;BME280;6560;57.692;11.958;2023-05-25T03:38:42;101689.69;;;24.23;100.00
12991;BME280;6560;57.692;11.958;2023-05-25T03:41:08;101747.59;;;24.59;91.58
12991;BME280;6560;57.692;11.958;2023-05-25T03:43:33;101751.28;;;25.15;98.62
12991;BME280;6560;57.692;11.958;2023-05-25T03:45:58;101728.72;;;24.10;91.14
12991;BME280;6560;57.692;11.958;2023-05-25T03:48:24;101742.56;;;25.24;96.65
12991;BME280;6560;57.692;11.958;2023-05-25T03:50:50;101732.75;;;25.56;86.85
12991;BME280;6560;57.692;11.958;2023-05-25T03:53:16;101606.09;;;24.77;85.11
12991;BME280;6560;57.692;11.958;2023-05-25T03:55:41;101739.28;;;25.62;79.88
12991;BME280;6560;57.692;11.958;2023-05-25T03:58:07;101691.50;;;25.60;78.45
12991;BME280;6560;57.692;11.958;2023-05-25T04:00:36;101753.91;;;26.00;73.70
12991;BME280;6560;57.692;11.958;2023-05-25T04:03:01;101778.28;;;26.32;70.86
12991;BME280;6560;57.692;11.958;2023-05-25T04:05:27;101787.66;;;26.44;73.61
12991;BME280;6560;57.692;11.958;2023-05-25T04:07:53;101742.16;;;26.30;68.66
12991;BME280;6560;57.692;11.958;2023-05-25T04:10:20;101771.28;;;27.46;69.42
12991;BME280;6560;57.692;11.958;2023-05-25T04:12:45;101769.16;;;27.70;70.83
12991;BME280;6560;57.692;11.958;2023-05-25T04:15:11;101772.72;;;27.29;66.86
12991;BME280;6560;57.692;11.958;2023-05-25T04:17:39;101783.69;;;26.98;65.18
12991;BME280;6560;57.692;11.958;2023-05-25T04:20:07;101762.06;;;27.36;65.36
12991;BME280;6560;57.692;11.958;2023-05-25T04:22:33;101791.88;;;26.35;64.49
12991;BME280;6560;57.692;11.958;2023-05-25T04:25:07;101735.09;;;27.04;65.54
12991;BME280;6560;57.692;11.958;2023-05-25T04:27:33;101768.25;;;27.70;61.03
12991;BME280;6560;57.692;11.958;2023-05-25T04:29:58;101786.63;;;27.46;61.81
12991;BME280;6560;57.692;11.958;2023-05-25T04:32:25;101795.75;;;27.10;58.55
12991;BME280;6560;57.692;11.958;2023-05-25T04:34:54;101781.91;;;27.74;63.81
12991;BME280;6560;57.692;11.958;2023-05-25T04:37:21;101747.41;;;28.54;63.37
12991;BME280;6560;57.692;11.958;2023-05-25T04:39:47;101739.16;;;28.48;56.13
12991;BME280;6560;57.692;11.958;2023-05-25T04:42:13;101794.78;;;28.73;58.68
12991;BME280;6560;57.692;11.958;2023-05-25T04:44:40;101806.78;;;29.37;55.51
12991;BME280;6560;57.692;11.958;2023-05-25T04:47:05;101814.41;;;28.59;56.58
12991;BME280;6560;57.692;11.958;2023-05-25T04:49:32;101807.28;;;29.13;55.42
12991;BME280;6560;57.692;11.958;2023-05-25T04:51:58;101798.81;;;30.97;54.12
12991;BME280;6560;57.692;11.958;2023-05-25T04:54:23;101812.19;;;30.74;52.73
12991;BME280;6560;57.692;11.958;2023-05-25T04:56:49;101802.78;;;30.43;51.28
12991;BME280;6560;57.692;11.958;2023-05-25T04:59:15;48749.63;;;29.77;51.22
12991;BME280;6560;57.692;11.958;2023-05-25T05:01:41;101820.53;;;30.93;50.92
12991;BME280;6560;57.692;11.958;2023-05-25T05:04:09;101823.63;;;31.29;52.57
12991;BME280;6560;57.692;11.958;2023-05-25T05:06:34;101826.38;;;30.46;47.65
12991;BME280;6560;57.692;11.958;2023-05-25T05:09:01;101828.09;;;30.36;47.01
12991;BME280;6560;57.692;11.958;2023-05-25T05:11:27;101822.16;;;30.71;47.68
12991;BME280;6560;57.692;11.958;2023-05-25T05:13:53;101838.59;;;30.81;49.16
12991;BME280;6560;57.692;11.958;2023-05-25T05:16:20;101829.63;;;32.19;46.81
12991;BME280;6560;57.692;11.958;2023-05-25T05:18:45;101820.47;;;30.83;45.98
12991;BME280;6560;57.692;11.958;2023-05-25T05:21:11;101803.59;;;31.27;45.62
12991;BME280;6560;57.692;11.958;2023-05-25T05:23:36;101830.47;;;30.84;43.02
12991;BME280;6560;57.692;11.958;2023-05-25T05:26:02;101826.72;;;31.82;42.48
12991;BME280;6560;57.692;11.958;2023-05-25T05:28:29;101835.06;;;30.90;41.99
12991;BME280;6560;57.692;11.958;2023-05-25T05:30:55;101811.38;;;32.07;41.00
12991;BME280;6560;57.692;11.958;2023-05-25T05:33:20;101841.19;;;31.67;41.33
12991;BME280;6560;57.692;11.958;2023-05-25T05:35:51;101824.06;;;32.03;43.11
12991;BME280;6560;57.692;11.958;2023-05-25T05:38:17;101840.72;;;32.61;42.62
12991;BME280;6560;57.692;11.958;2023-05-25T05:40:42;101831.66;;;32.96;41.03
12991;BME280;6560;57.692;11.958;2023-05-25T05:43:12;101823.09;;;31.91;40.74
12991;BME280;6560;57.692;11.958;2023-05-25T05:45:38;101848.97;;;32.78;42.90
12991;BME280;6560;57.692;11.958;2023-05-25T05:48:04;101848.31;;;31.53;41.09
12991;BME280;6560;57.692;11.958;2023-05-25T05:50:37;101850.25;;;31.63;41.13
12991;BME280;6560;57.692;11.958;2023-05-25T05:53:03;101858.50;;;31.79;41.56
12991;BME280;6560;57.692;11.958;2023-05-25T05:55:28;101855.34;;;31.22;41.69
12991;BME280;6560;57.692;11.958;2023-05-25T05:57:54;101857.72;;;31.98;40.82
12991;BME280;6560;57.692;11.958;2023-05-25T06:00:20;101865.13;;;32.17;38.94
12991;BME280;6560;57.692;11.958;2023-05-25T06:02:45;101838.66;;;32.05;38.53
12991;BME280;6560;57.692;11.958;2023-05-25T06:05:11;101856.28;;;33.18;39.22
12991;BME280;6560;57.692;11.958;2023-05-25T06:07:37;101793.34;;;32.55;39.85
12991;BME280;6560;57.692;11.958;2023-05-25T06:10:03;101852.94;;;31.60;37.59
12991;BME280;6560;57.692;11.958;2023-05-25T06:12:29;101875.22;;;32.39;37.12
12991;BME280;6560;57.692;11.958;2023-05-25T06:14:54;101864.28;;;32.33;37.92
12991;BME280;6560;57.692;11.958;2023-05-25T06:17:21;101878.03;;;32.64;37.00
12991;BME280;6560;57.692;11.958;2023-05-25T06:19:47;101888.16;;;32.98;37.12
12991;BME280;6560;57.692;11.958;2023-05-25T06:22:14;101899.09;;;33.04;36.43
12991;BME280;6560;57.692;11.958;2023-05-25T06:24:40;101879.94;;;32.80;36.11
12991;BME280;6560;57.692;11.958;2023-05-25T06:27:05;101899.16;;;33.50;34.91
12991;BME280;6560;57.692;11.958;2023-05-25T06:29:31;101881.81;;;33.61;36.30
12991;BME280;6560;57.692;11.958;2023-05-25T06:31:56;101865.38;;;33.10;33.75
12991;BME280;6560;57.692;11.958;2023-05-25T06:34:22;101900.78;;;32.54;35.00
12991;BME280;6560;57.692;11.958;2023-05-25T06:36:47;101906.38;;;32.87;35.19
12991;BME280;6560;57.692;11.958;2023-05-25T06:39:13;101901.84;;;33.16;33.80
12991;BME280;6560;57.692;11.958;2023-05-25T06:41:39;101880.88;;;32.88;34.05
12991;BME280;6560;57.692;11.958;2023-05-25T06:44:05;101894.59;;;33.67;33.48
12991;BME280;6560;57.692;11.958;2023-05-25T06:46:31;101840.78;;;33.63;33.66
12991;BME280;6560;57.692;11.958;2023-05-25T06:48:58;101907.28;;;34.20;32.36
12991;BME280;6560;57.692;11.958;2023-05-25T06:51:24;101910.09;;;33.42;32.72
12991;BME280;6560;57.692;11.958;2023-05-25T06:53:52;101914.66;;;33.34;32.36
12991;BME280;6560;57.692;11.958;2023-05-25T06:56:17;101922.78;;;33.10;32.73
12991;BME280;6560;57.692;11.958;2023-05-25T06:58:43;101791.22;;;31.78;32.67
12991;BME280;6560;57.692;11.958;2023-05-25T07:01:09;101903.88;;;31.66;32.84
12991;BME280;6560;57.692;11.958;2023-05-25T07:03:35;101897.13;;;32.58;32.29
12991;BME280;6560;57.692;11.958;2023-05-25T07:06:00;101902.72;;;32.87;32.47
12991;BME280;6560;57.692;11.958;2023-05-25T07:08:26;101900.97;;;33.84;31.25
12991;BME280;6560;57.692;11.958;2023-05-25T07:10:51;101878.94;;;32.66;31.32
12991;BME280;6560;57.692;11.958;2023-05-25T07:13:17;101889.13;;;33.37;31.83
12991;BME280;6560;57.692;11.958;2023-05-25T07:15:42;101901.69;;;32.56;31.56
12991;BME280;6560;57.692;11.958;2023-05-25T07:18:08;101835.91;;;31.96;31.33
12991;BME280;6560;57.692;11.958;2023-05-25T07:20:37;101901.88;;;33.38;30.77
12991;BME280;6560;57.692;11.958;2023-05-25T07:23:03;101905.47;;;34.08;30.29
12991;BME280;6560;57.692;11.958;2023-05-25T07:25:29;101901.41;;;32.05;32.40
12991;BME280;6560;57.692;11.958;2023-05-25T07:27:54;101858.97;;;32.79;31.72
12991;BME280;6560;57.692;11.958;2023-05-25T07:30:20;101900.97;;;33.78;30.69
12991;BME280;6560;57.692;11.958;2023-05-25T07:32:45;101921.06;;;33.80;31.09
12991;BME280;6560;57.692;11.958;2023-05-25T07:35:11;101907.31;;;33.12;31.68
12991;BME280;6560;57.692;11.958;2023-05-25T07:37:36;101890.69;;;34.58;30.75
12991;BME280;6560;57.692;11.958;2023-05-25T07:40:02;101913.38;;;34.87;30.40
12991;BME280;6560;57.692;11.958;2023-05-25T07:42:28;101904.25;;;34.90;30.46
12991;BME280;6560;57.692;11.958;2023-05-25T07:44:59;101921.31;;;35.33;29.61
12991;BME280;6560;57.692;11.958;2023-05-25T07:47:25;101928.81;;;34.99;29.59
12991;BME280;6560;57.692;11.958;2023-05-25T07:49:51;101928.56;;;35.40;29.10
12991;BME280;6560;57.692;11.958;2023-05-25T07:52:16;101914.75;;;35.52;28.14
12991;BME280;6560;57.692;11.958;2023-05-25T07:54:44;101928.50;;;35.46;29.34
12991;BME280;6560;57.692;11.958;2023-05-25T07:57:09;101924.19;;;36.18;29.06
12991;BME280;6560;57.692;11.958;2023-05-25T07:59:35;101914.09;;;36.20;28.38
12991;BME280;6560;57.692;11.958;2023-05-25T08:02:00;101922.81;;;35.76;28.68
12991;BME280;6560;57.692;11.958;2023-05-25T08:04:26;101917.31;;;35.76;29.04
12991;BME280;6560;57.692;11.958;2023-05-25T08:06:52;101913.88;;;35.50;28.56
12991;BME280;6560;57.692;11.958;2023-05-25T08:09:17;101922.38;;;35.09;28.27
12991;BME280;6560;57.692;11.958;2023-05-25T08:11:43;101935.69;;;35.70;27.51
12991;BME280;6560;57.692;11.958;2023-05-25T08:14:10;101929.59;;;36.24;27.91
12991;BME280;6560;57.692;11.958;2023-05-25T08:16:35;101940.69;;;36.14;27.77
12991;BME280;6560;57.692;11.958;2023-05-25T08:19:01;101939.16;;;35.87;27.73
12991;BME280;6560;57.692;11.958;2023-05-25T08:21:27;101922.06;;;35.51;27.57
12991;BME280;6560;57.692;11.958;2023-05-25T08:23:52;101927.31;;;35.80;28.16
12991;BME280;6560;57.692;11.958;2023-05-25T08:26:18;101931.84;;;35.86;28.91
12991;BME280;6560;57.692;11.958;2023-05-25T08:28:44;101859.78;;;35.63;28.28
12991;BME280;6560;57.692;11.958;2023-05-25T08:31:09;101934.25;;;36.21;28.22
12991;BME280;6560;57.692;11.958;2023-05-25T08:33:36;101938.25;;;35.85;28.02
12991;BME280;6560;57.692;11.958;2023-05-25T08:36:02;101936.25;;;36.02;27.98
12991;BME280;6560;57.692;11.958;2023-05-25T08:38:27;101933.25;;;35.29;28.21
12991;BME280;6560;57.692;11.958;2023-05-25T08:41:03;101904.00;;;35.26;27.53
12991;BME280;6560;57.692;11.958;2023-05-25T08:43:31;101952.41;;;35.33;27.52
12991;BME280;6560;57.692;11.958;2023-05-25T08:46:04;101948.84;;;35.21;27.54
12991;BME280;6560;57.692;11.958;2023-05-25T08:48:32;101942.69;;;34.77;27.14
12991;BME280;6560;57.692;11.958;2023-05-25T08:51:07;101945.28;;;35.05;27.89
12991;BME280;6560;57.692;11.958;2023-05-25T08:53:37;101947.47;;;35.78;27.44
12991;BME280;6560;57.692;11.958;2023-05-25T08:56:16;101908.63;;;35.12;27.12
12991;BME280;6560;57.692;11.958;2023-05-25T08:58:55;101929.69;;;35.08;27.70
12991;BME280;6560;57.692;11.958;2023-05-25T09:01:21;101971.03;;;34.64;27.51
12991;BME280;6560;57.692;11.958;2023-05-25T09:03:52;101959.28;;;34.30;27.66
12991;BME280;6560;57.692;11.958;2023-05-25T09:06:19;101966.41;;;34.85;27.50
12991;BME280;6560;57.692;11.958;2023-05-25T09:08:45;101977.47;;;34.47;28.16
12991;BME280;6560;57.692;11.958;2023-05-25T09:11:11;101912.81;;;33.63;28.16
12991;BME280;6560;57.692;11.958;2023-05-25T09:13:37;101982.16;;;33.90;29.11
12991;BME280;6560;57.692;11.958;2023-05-25T09:16:03;101967.56;;;33.82;28.03
12991;BME280;6560;57.692;11.958;2023-05-25T09:18:28;101984.00;;;33.85;28.37
12991;BME280;6560;57.692;11.958;2023-05-25T09:20:54;101956.59;;;33.89;27.86
12991;BME280;6560;57.692;11.958;2023-05-25T09:23:20;101970.25;;;34.08;27.68
12991;BME280;6560;57.692;11.958;2023-05-25T09:25:46;101963.91;;;33.58;27.74
12991;BME280;6560;57.692;11.958;2023-05-25T09:28:12;101971.19;;;33.67;27.67
12991;BME280;6560;57.692;11.958;2023-05-25T09:30:37;101971.19;;;33.67;28.42
12991;BME280;6560;57.692;11.958;2023-05-25T09:33:13;101974.81;;;33.43;28.58
12991;BME280;6560;57.692;11.958;2023-05-25T09:35:42;101974.88;;;33.71;28.29
12991;BME280;6560;57.692;11.958;2023-05-25T09:38:23;101981.22;;;33.47;28.86
12991;BME280;6560;57.692;11.958;2023-05-25T09:40:55;101935.22;;;32.26;30.24
12991;BME280;6560;57.692;11.958;2023-05-25T09:43:20;101983.31;;;32.12;31.00
12991;BME280;6560;57.692;11.958;2023-05-25T09:45:46;101989.09;;;32.54;31.09
12991;BME280;6560;57.692;11.958;2023-05-25T09:48:12;101988.31;;;32.82;31.02
12991;BME280;6560;57.692;11.958;2023-05-25T09:50:37;101986.28;;;32.43;31.79
12991;BME280;6560;57.692;11.958;2023-05-25T09:53:03;101984.44;;;32.35;31.87
12991;BME280;6560;57.692;11.958;2023-05-25T09:55:29;101989.44;;;31.77;32.62
12991;BME280;6560;57.692;11.958;2023-05-25T09:57:55;102002.81;;;31.48;32.09
12991;BME280;6560;57.692;11.958;2023-05-25T10:00:22;101996.00;;;32.00;32.22
12991;BME280;6560;57.692;11.958;2023-05-25T10:02:48;101974.59;;;31.46;32.43
12991;BME280;6560;57.692;11.958;2023-05-25T10:05:14;102009.00;;;30.61;34.41
12991;BME280;6560;57.692;11.958;2023-05-25T10:07:40;102014.16;;;31.05;34.23
12991;BME280;6560;57.692;11.958;2023-05-25T10:10:07;102016.03;;;30.45;35.03
12991;BME280;6560;57.692;11.958;2023-05-25T10:12:34;101936.19;;;28.84;37.06
12991;BME280;6560;57.692;11.958;2023-05-25T10:15:02;102031.53;;;29.94;35.92
12991;BME280;6560;57.692;11.958;2023-05-25T10:17:30;102034.81;;;30.27;35.26
12991;BME280;6560;57.692;11.958;2023-05-25T10:19:59;102037.81;;;30.45;35.24
12991;BME280;6560;57.692;11.958;2023-05-25T10:22:46;102047.75;;;30.42;36.21
12991;BME280;6560;57.692;11.958;2023-05-25T10:25:31;102050.50;;;30.43;36.24
12991;BME280;6560;57.692;11.958;2023-05-25T10:28:30;102059.44;;;30.36;36.12
12991;BME280;6560;57.692;11.958;2023-05-25T10:31:00;101964.22;;;30.38;34.95
12991;BME280;6560;57.692;11.958;2023-05-25T10:33:26;102050.28;;;29.77;35.78
12991;BME280;6560;57.692;11.958;2023-05-25T10:35:53;102056.25;;;29.56;36.71
12991;BME280;6560;57.692;11.958;2023-05-25T10:38:19;102055.13;;;29.93;36.08
12991;BME280;6560;57.692;11.958;2023-05-25T10:40:46;101968.00;;;28.91;37.65
12991;BME280;6560;57.692;11.958;2023-05-25T10:43:18;102062.63;;;29.58;36.49
12991;BME280;6560;57.692;11.958;2023-05-25T10:45:44;102059.84;;;29.55;37.14
12991;BME280;6560;57.692;11.958;2023-05-25T10:48:10;102051.22;;;29.79;37.71
12991;BME280;6560;57.692;11.958;2023-05-25T10:50:36;101998.16;;;29.51;37.67
12991;BME280;6560;57.692;11.958;2023-05-25T10:53:05;101977.22;;;29.46;36.52
12991;BME280;6560;57.692;11.958;2023-05-25T10:56:01;102031.06;;;29.66;37.17
12991;BME280;6560;57.692;11.958;2023-05-25T10:58:28;102030.16;;;29.66;37.58
12991;BME280;6560;57.692;11.958;2023-05-25T11:01:07;101944.16;;;28.75;38.21
12991;BME280;6560;57.692;11.958;2023-05-25T11:06:08;102012.59;;;29.49;37.78
12991;BME280;6560;57.692;11.958;2023-05-25T11:08:54;102039.78;;;29.49;38.07
12991;BME280;6560;57.692;11.958;2023-05-25T11:17:13;102047.69;;;29.35;37.66
12991;BME280;6560;57.692;11.958;2023-05-25T11:19:48;102057.78;;;29.42;37.46
12991;BME280;6560;57.692;11.958;2023-05-25T11:22:19;102044.50;;;29.57;36.87
12991;BME280;6560;57.692;11.958;2023-05-25T11:24:49;101985.53;;;29.07;37.60
12991;BME280;6560;57.692;11.958;2023-05-25T11:27:21;102042.91;;;28.80;37.81
12991;BME280;6560;57.692;11.958;2023-05-25T11:29:51;102046.09;;;29.48;37.07
12991;BME280;6560;57.692;11.958;2023-05-25T11:32:17;102064.09;;;28.98;37.73
12991;BME280;6560;57.692;11.958;2023-05-25T11:34:43;102021.53;;;28.97;37.86
12991;BME280;6560;57.692;11.958;2023-05-25T11:37:12;102048.78;;;29.01;37.03
12991;BME280;6560;57.692;11.958;2023-05-25T11:39:38;102058.50;;;28.90;36.97
12991;BME280;6560;57.692;11.958;2023-05-25T11:42:04;102012.31;;;28.49;37.86
12991;BME280;6560;57.692;11.958;2023-05-25T11:44:34;102055.28;;;28.30;38.32
12991;BME280;6560;57.692;11.958;2023-05-25T11:47:04;102066.81;;;28.20;36.75
12991;BME280;6560;57.692;11.958;2023-05-25T11:49:32;102015.19;;;27.48;37.81
12991;BME280;6560;57.692;11.958;2023-05-25T11:51:58;102063.50;;;27.64;37.27
12991;BME280;6560;57.692;11.958;2023-05-25T11:54:26;101974.81;;;27.24;37.21
12991;BME280;6560;57.692;11.958;2023-05-25T11:56:53;102072.13;;;28.15;36.60
12991;BME280;6560;57.692;11.958;2023-05-25T11:59:21;102056.94;;;28.23;36.61
12991;BME280;6560;57.692;11.958;2023-05-25T12:02:00;102069.03;;;28.01;36.94
12991;BME280;6560;57.692;11.958;2023-05-25T12:04:27;102075.44;;;27.70;36.65
12991;BME280;6560;57.692;11.958;2023-05-25T12:07:00;54250.84;;;-144.44;100.00
12991;BME280;6560;57.692;11.958;2023-05-25T12:09:26;54250.84;;;-144.44;100.00
12991;BME280;6560;57.692;11.958;2023-05-25T12:11:51;54250.84;;;-144.44;100.00
12991;BME280;6560;57.692;11.958;2023-05-25T12:14:17;54250.84;;;-144.44;100.00
12991;BME280;6560;57.692;11.958;2023-05-25T12:16:42;54250.84;;;-144.44;100.00
12991;BME280;6560;57.692;11.958;2023-05-25T12:19:09;54250.84;;;-144.44;100.00
12991;BME280;6560;57.692;11.958;2023-05-25T12:21:37;54250.84;;;-144.44;100.00
12991;BME280;6560;57.692;11.958;2023-05-25T12:24:03;54250.84;;;-144.44;100.00
12991;BME280;6560;57.692;11.958;2023-05-25T12:26:48;54250.84;;;-144.44;100.00
12991;BME280;6560;57.692;11.958;2023-05-25T12:29:15;54250.84;;;-144.44;100.00
12991;BME280;6560;57.692;11.958;2023-05-25T12:31:40;54250.84;;;-144.44;100.00
12991;BME280;6560;57.692;11.958;2023-05-25T12:34:10;54250.84;;;-144.44;100.00
12991;BME280;6560;57.692;11.958;2023-05-25T12:36:44;54250.84;;;-144.44;100.00
12991;BME280;6560;57.692;11.958;2023-05-25T12:39:12;54250.84;;;-144.44;100.00
12991;BME280;6560;57.692;11.958;2023-05-25T12:41:48;54250.84;;;-144.44;100.00
12991;BME280;6560;57.692;11.958;2023-05-25T12:44:28;54250.84;;;-144.44;100.00
12991;BME280;6560;57.692;11.958;2023-05-25T12:47:12;54250.84;;;-144.44;100.00
12991;BME280;6560;57.692;11.958;2023-05-25T12:49:39;54250.84;;;-144.44;100.00
12991;BME280;6560;57.692;11.958;2023-05-25T12:52:05;54250.84;;;-144.44;100.00
12991;BME280;6560;57.692;11.958;2023-05-25T12:54:41;54250.84;;;-144.44;100.00
12991;BME280;6560;57.692;11.958;2023-05-25T12:57:14;54250.84;;;-144.44;100.00
12991;BME280;6560;57.692;11.958;2023-05-25T12:59:42;54250.84;;;-144.44;100.00
12991;BME280;6560;57.692;11.958;2023-05-25T13:02:08;54250.84;;;-144.44;100.00